Blandinsville, Illinois
Current Conditions -  °F | °C
As of 8:15 PM on Monday 22 Dec 2014 (Local Time) from KMQB Reporting Station
Haze Haze  
Wind Chill: 39°   Ceiling: 200
Heat Index: 44°   Visibility: 5mi
Dew Point: 44°   Wind: 9mph
Humidity: 100%   Direction: 130°SE
Pressure: 29.52"   Gusts: NA
Location:  40.56°N, 90.87°W
Report Text: KMQB 230215Z AUTO 13008KT 5SM BR OVC002 07/07 A2952 RMK AO2 T00650065
Loading
Personal Weather Stations






























Interactive Weather Map New forecast layout! Learn more

10-Day Weather Forecast

Advertisements
Track Severe Weather on mobile